South Range, Michigan
Current Conditions -  °F | °C
As of 12:53 PM on Friday 28 Nov 2014 (Local Time) from KCMX Reporting Station
Overcast Overcast  
Wind Chill: -11°   Ceiling: 8500
Heat Index: -11°   Visibility: 10mi
Dew Point: -16°   Wind: 3mph
Humidity: 67%   Direction: 160°SSE
Pressure: 30.02"   Gusts: NA
Location:  47.07°N, 88.64°W
Report Text: KCMX 281753Z AUTO 16003KT 10SM OVC085 M11/M16 A3002 RMK AO2 SLP191 T11111161 11111 21139 58025
Loading
Personal Weather Stations






























Interactive Weather Map New forecast layout! Learn more

10-Day Weather Forecast

Advertisements
Track Severe Weather on mobile